sensor_id;sensor_type;location;lat;lon;timestamp;P1;durP1;ratioP1;P2;durP2;ratioP2
2546;SDS011;1283;47.982;7.834;2022-10-31T00:00:25;5.00;;;1.65;;
2546;SDS011;1283;47.982;7.834;2022-10-31T00:02:52;10.70;;;2.00;;
2546;SDS011;1283;47.982;7.834;2022-10-31T00:05:18;6.53;;;1.90;;
2546;SDS011;1283;47.982;7.834;2022-10-31T00:07:45;7.75;;;2.50;;
2546;SDS011;1283;47.982;7.834;2022-10-31T00:10:11;13.30;;;2.30;;
2546;SDS011;1283;47.982;7.834;2022-10-31T00:12:38;8.70;;;2.65;;
2546;SDS011;1283;47.982;7.834;2022-10-31T00:15:06;9.32;;;2.30;;
2546;SDS011;1283;47.982;7.834;2022-10-31T00:17:34;7.57;;;2.58;;
2546;SDS011;1283;47.982;7.834;2022-10-31T00:20:01;7.70;;;2.00;;
2546;SDS011;1283;47.982;7.834;2022-10-31T00:22:27;7.30;;;1.77;;
2546;SDS011;1283;47.982;7.834;2022-10-31T00:24:54;9.18;;;2.33;;
2546;SDS011;1283;47.982;7.834;2022-10-31T00:27:20;10.57;;;2.72;;
2546;SDS011;1283;47.982;7.834;2022-10-31T00:29:47;15.75;;;2.50;;
2546;SDS011;1283;47.982;7.834;2022-10-31T00:32:14;8.35;;;3.45;;
2546;SDS011;1283;47.982;7.834;2022-10-31T00:34:41;8.25;;;2.63;;
2546;SDS011;1283;47.982;7.834;2022-10-31T00:37:07;8.82;;;2.53;;
2546;SDS011;1283;47.982;7.834;2022-10-31T00:39:34;9.82;;;2.40;;
2546;SDS011;1283;47.982;7.834;2022-10-31T00:42:00;9.70;;;2.30;;
2546;SDS011;1283;47.982;7.834;2022-10-31T00:44:26;10.32;;;2.90;;
2546;SDS011;1283;47.982;7.834;2022-10-31T00:46:53;7.70;;;2.50;;
2546;SDS011;1283;47.982;7.834;2022-10-31T00:49:21;6.78;;;2.20;;
2546;SDS011;1283;47.982;7.834;2022-10-31T00:51:47;6.45;;;2.30;;
2546;SDS011;1283;47.982;7.834;2022-10-31T00:54:14;10.32;;;3.47;;
2546;SDS011;1283;47.982;7.834;2022-10-31T00:56:40;6.90;;;2.20;;
2546;SDS011;1283;47.982;7.834;2022-10-31T00:59:06;7.15;;;1.85;;
2546;SDS011;1283;47.982;7.834;2022-10-31T01:01:33;5.78;;;2.55;;
2546;SDS011;1283;47.982;7.834;2022-10-31T01:03:59;8.48;;;1.70;;
2546;SDS011;1283;47.982;7.834;2022-10-31T01:06:27;8.90;;;2.05;;
2546;SDS011;1283;47.982;7.834;2022-10-31T01:08:54;5.43;;;1.90;;
2546;SDS011;1283;47.982;7.834;2022-10-31T01:11:20;8.27;;;2.25;;
2546;SDS011;1283;47.982;7.834;2022-10-31T01:13:50;4.65;;;2.00;;
2546;SDS011;1283;47.982;7.834;2022-10-31T01:16:18;6.43;;;1.75;;
2546;SDS011;1283;47.982;7.834;2022-10-31T01:18:46;8.77;;;2.15;;
2546;SDS011;1283;47.982;7.834;2022-10-31T01:21:13;8.00;;;2.05;;
2546;SDS011;1283;47.982;7.834;2022-10-31T01:23:43;8.88;;;2.10;;
2546;SDS011;1283;47.982;7.834;2022-10-31T01:26:10;7.13;;;2.20;;
2546;SDS011;1283;47.982;7.834;2022-10-31T01:28:38;9.93;;;2.25;;
2546;SDS011;1283;47.982;7.834;2022-10-31T01:31:08;12.02;;;2.70;;
2546;SDS011;1283;47.982;7.834;2022-10-31T01:33:35;5.95;;;1.80;;
2546;SDS011;1283;47.982;7.834;2022-10-31T01:36:10;11.85;;;3.03;;
2546;SDS011;1283;47.982;7.834;2022-10-31T01:38:37;7.25;;;2.85;;
2546;SDS011;1283;47.982;7.834;2022-10-31T01:41:05;7.20;;;2.22;;
2546;SDS011;1283;47.982;7.834;2022-10-31T01:43:41;20.02;;;3.45;;
2546;SDS011;1283;47.982;7.834;2022-10-31T01:48:35;7.18;;;2.90;;
2546;SDS011;1283;47.982;7.834;2022-10-31T01:51:01;8.82;;;2.60;;
2546;SDS011;1283;47.982;7.834;2022-10-31T01:53:30;6.72;;;1.95;;
2546;SDS011;1283;47.982;7.834;2022-10-31T01:55:57;7.32;;;2.20;;
2546;SDS011;1283;47.982;7.834;2022-10-31T01:58:27;9.90;;;2.35;;
2546;SDS011;1283;47.982;7.834;2022-10-31T02:00:55;5.53;;;1.95;;
2546;SDS011;1283;47.982;7.834;2022-10-31T02:03:23;10.70;;;1.95;;
2546;SDS011;1283;47.982;7.834;2022-10-31T02:05:52;9.65;;;2.22;;
2546;SDS011;1283;47.982;7.834;2022-10-31T02:08:20;6.88;;;2.15;;
2546;SDS011;1283;47.982;7.834;2022-10-31T02:10:49;9.10;;;1.85;;
2546;SDS011;1283;47.982;7.834;2022-10-31T02:13:16;7.45;;;2.15;;
2546;SDS011;1283;47.982;7.834;2022-10-31T02:15:45;5.50;;;2.17;;
2546;SDS011;1283;47.982;7.834;2022-10-31T02:18:13;8.05;;;2.58;;
2546;SDS011;1283;47.982;7.834;2022-10-31T02:20:42;15.30;;;2.60;;
2546;SDS011;1283;47.982;7.834;2022-10-31T02:23:26;8.38;;;2.03;;
2546;SDS011;1283;47.982;7.834;2022-10-31T02:26:12;4.32;;;2.20;;
2546;SDS011;1283;47.982;7.834;2022-10-31T02:28:54;6.72;;;2.22;;
2546;SDS011;1283;47.982;7.834;2022-10-31T02:31:33;13.48;;;3.17;;
2546;SDS011;1283;47.982;7.834;2022-10-31T02:34:05;7.63;;;2.20;;
2546;SDS011;1283;47.982;7.834;2022-10-31T02:36:39;5.95;;;2.17;;
2546;SDS011;1283;47.982;7.834;2022-10-31T02:39:10;8.00;;;2.00;;
2546;SDS011;1283;47.982;7.834;2022-10-31T02:41:43;11.18;;;2.22;;
2546;SDS011;1283;47.982;7.834;2022-10-31T02:44:15;6.05;;;2.25;;
2546;SDS011;1283;47.982;7.834;2022-10-31T02:46:45;6.43;;;2.10;;
2546;SDS011;1283;47.982;7.834;2022-10-31T02:49:17;8.43;;;2.38;;
2546;SDS011;1283;47.982;7.834;2022-10-31T02:51:47;9.52;;;2.05;;
2546;SDS011;1283;47.982;7.834;2022-10-31T02:54:21;4.07;;;2.13;;
2546;SDS011;1283;47.982;7.834;2022-10-31T02:56:48;6.07;;;2.03;;
2546;SDS011;1283;47.982;7.834;2022-10-31T02:59:17;14.20;;;2.10;;
2546;SDS011;1283;47.982;7.834;2022-10-31T03:04:39;5.45;;;2.10;;
2546;SDS011;1283;47.982;7.834;2022-10-31T03:07:21;4.78;;;1.80;;
2546;SDS011;1283;47.982;7.834;2022-10-31T03:09:52;9.80;;;2.83;;
2546;SDS011;1283;47.982;7.834;2022-10-31T03:12:22;9.80;;;2.75;;
2546;SDS011;1283;47.982;7.834;2022-10-31T03:14:53;9.45;;;2.42;;
2546;SDS011;1283;47.982;7.834;2022-10-31T03:17:26;26.58;;;2.63;;
2546;SDS011;1283;47.982;7.834;2022-10-31T03:19:57;7.47;;;2.28;;
2546;SDS011;1283;47.982;7.834;2022-10-31T03:22:27;6.43;;;2.40;;
2546;SDS011;1283;47.982;7.834;2022-10-31T03:24:54;8.30;;;2.00;;
2546;SDS011;1283;47.982;7.834;2022-10-31T03:27:23;5.18;;;1.83;;
2546;SDS011;1283;47.982;7.834;2022-10-31T03:29:51;6.72;;;2.13;;
2546;SDS011;1283;47.982;7.834;2022-10-31T03:32:21;7.68;;;2.25;;
2546;SDS011;1283;47.982;7.834;2022-10-31T03:34:50;6.15;;;2.33;;
2546;SDS011;1283;47.982;7.834;2022-10-31T03:37:19;5.45;;;2.25;;
2546;SDS011;1283;47.982;7.834;2022-10-31T03:39:47;5.45;;;2.95;;
2546;SDS011;1283;47.982;7.834;2022-10-31T03:42:15;7.18;;;2.20;;
2546;SDS011;1283;47.982;7.834;2022-10-31T03:44:44;6.90;;;2.70;;
2546;SDS011;1283;47.982;7.834;2022-10-31T03:47:13;9.55;;;2.40;;
2546;SDS011;1283;47.982;7.834;2022-10-31T03:49:39;9.82;;;2.50;;
2546;SDS011;1283;47.982;7.834;2022-10-31T03:52:09;5.60;;;2.17;;
2546;SDS011;1283;47.982;7.834;2022-10-31T03:54:40;3.65;;;2.00;;
2546;SDS011;1283;47.982;7.834;2022-10-31T03:57:11;7.13;;;2.33;;
2546;SDS011;1283;47.982;7.834;2022-10-31T03:59:42;5.82;;;2.25;;
2546;SDS011;1283;47.982;7.834;2022-10-31T04:02:11;6.95;;;2.20;;
2546;SDS011;1283;47.982;7.834;2022-10-31T04:04:40;6.93;;;2.33;;
2546;SDS011;1283;47.982;7.834;2022-10-31T04:07:09;7.75;;;2.42;;
2546;SDS011;1283;47.982;7.834;2022-10-31T04:09:36;8.23;;;2.13;;
2546;SDS011;1283;47.982;7.834;2022-10-31T04:12:04;7.57;;;2.50;;
2546;SDS011;1283;47.982;7.834;2022-10-31T04:14:36;7.38;;;2.42;;
2546;SDS011;1283;47.982;7.834;2022-10-31T04:17:05;8.23;;;2.72;;
2546;SDS011;1283;47.982;7.834;2022-10-31T04:19:34;8.23;;;2.70;;
2546;SDS011;1283;47.982;7.834;2022-10-31T04:22:01;7.15;;;2.50;;
2546;SDS011;1283;47.982;7.834;2022-10-31T04:24:29;10.60;;;2.40;;
2546;SDS011;1283;47.982;7.834;2022-10-31T04:26:55;9.05;;;2.17;;
2546;SDS011;1283;47.982;7.834;2022-10-31T04:29:22;11.50;;;2.42;;
2546;SDS011;1283;47.982;7.834;2022-10-31T04:31:48;5.78;;;2.08;;
2546;SDS011;1283;47.982;7.834;2022-10-31T04:34:15;12.00;;;2.20;;
2546;SDS011;1283;47.982;7.834;2022-10-31T04:36:41;7.95;;;2.20;;
2546;SDS011;1283;47.982;7.834;2022-10-31T04:39:07;10.35;;;2.78;;
2546;SDS011;1283;47.982;7.834;2022-10-31T04:41:35;5.60;;;2.50;;
2546;SDS011;1283;47.982;7.834;2022-10-31T04:44:02;7.38;;;2.88;;
2546;SDS011;1283;47.982;7.834;2022-10-31T04:46:28;12.82;;;3.40;;
2546;SDS011;1283;47.982;7.834;2022-10-31T04:48:55;14.65;;;4.75;;
2546;SDS011;1283;47.982;7.834;2022-10-31T04:51:22;6.65;;;4.00;;
2546;SDS011;1283;47.982;7.834;2022-10-31T04:53:49;15.10;;;3.72;;
2546;SDS011;1283;47.982;7.834;2022-10-31T04:56:15;12.02;;;4.35;;
2546;SDS011;1283;47.982;7.834;2022-10-31T04:58:43;17.20;;;4.18;;
2546;SDS011;1283;47.982;7.834;2022-10-31T05:01:09;11.70;;;4.70;;
2546;SDS011;1283;47.982;7.834;2022-10-31T05:03:36;14.50;;;5.05;;
2546;SDS011;1283;47.982;7.834;2022-10-31T05:06:04;11.10;;;4.75;;
2546;SDS011;1283;47.982;7.834;2022-10-31T05:08:31;17.73;;;6.03;;
2546;SDS011;1283;47.982;7.834;2022-10-31T05:10:59;17.60;;;5.78;;
2546;SDS011;1283;47.982;7.834;2022-10-31T05:13:25;10.15;;;4.82;;
2546;SDS011;1283;47.982;7.834;2022-10-31T05:15:53;14.00;;;5.28;;
2546;SDS011;1283;47.982;7.834;2022-10-31T05:18:19;9.75;;;4.47;;
2546;SDS011;1283;47.982;7.834;2022-10-31T05:20:46;21.88;;;4.90;;
2546;SDS011;1283;47.982;7.834;2022-10-31T05:23:13;23.73;;;4.90;;
2546;SDS011;1283;47.982;7.834;2022-10-31T05:25:39;9.60;;;4.20;;
2546;SDS011;1283;47.982;7.834;2022-10-31T05:28:06;14.63;;;5.60;;
2546;SDS011;1283;47.982;7.834;2022-10-31T05:30:33;13.70;;;5.55;;
2546;SDS011;1283;47.982;7.834;2022-10-31T05:33:01;11.55;;;4.18;;
2546;SDS011;1283;47.982;7.834;2022-10-31T05:35:28;10.48;;;4.55;;
2546;SDS011;1283;47.982;7.834;2022-10-31T05:37:56;14.82;;;3.92;;
2546;SDS011;1283;47.982;7.834;2022-10-31T05:40:23;11.05;;;4.50;;
2546;SDS011;1283;47.982;7.834;2022-10-31T05:42:51;14.55;;;5.07;;
2546;SDS011;1283;47.982;7.834;2022-10-31T05:45:19;23.02;;;5.13;;
2546;SDS011;1283;47.982;7.834;2022-10-31T05:47:49;13.68;;;4.95;;
2546;SDS011;1283;47.982;7.834;2022-10-31T05:50:18;16.73;;;5.00;;
2546;SDS011;1283;47.982;7.834;2022-10-31T05:52:45;10.93;;;4.50;;
2546;SDS011;1283;47.982;7.834;2022-10-31T05:55:11;17.33;;;4.75;;
2546;SDS011;1283;47.982;7.834;2022-10-31T05:57:38;10.60;;;4.95;;
2546;SDS011;1283;47.982;7.834;2022-10-31T06:00:05;10.85;;;4.55;;
2546;SDS011;1283;47.982;7.834;2022-10-31T06:02:32;11.38;;;4.63;;
2546;SDS011;1283;47.982;7.834;2022-10-31T06:04:59;14.05;;;4.47;;
2546;SDS011;1283;47.982;7.834;2022-10-31T06:07:31;9.75;;;4.65;;
2546;SDS011;1283;47.982;7.834;2022-10-31T06:09:58;13.07;;;5.97;;
2546;SDS011;1283;47.982;7.834;2022-10-31T06:12:24;11.05;;;4.90;;
2546;SDS011;1283;47.982;7.834;2022-10-31T06:14:51;11.20;;;4.80;;
2546;SDS011;1283;47.982;7.834;2022-10-31T06:17:17;8.35;;;4.50;;
2546;SDS011;1283;47.982;7.834;2022-10-31T06:19:44;10.73;;;4.13;;
2546;SDS011;1283;47.982;7.834;2022-10-31T06:22:10;18.83;;;4.95;;
2546;SDS011;1283;47.982;7.834;2022-10-31T06:24:38;18.33;;;4.30;;
2546;SDS011;1283;47.982;7.834;2022-10-31T06:27:05;14.18;;;4.00;;
2546;SDS011;1283;47.982;7.834;2022-10-31T06:29:31;15.68;;;3.60;;
2546;SDS011;1283;47.982;7.834;2022-10-31T06:31:58;15.35;;;4.18;;
2546;SDS011;1283;47.982;7.834;2022-10-31T06:34:24;23.15;;;4.50;;
2546;SDS011;1283;47.982;7.834;2022-10-31T06:36:51;11.27;;;3.97;;
2546;SDS011;1283;47.982;7.834;2022-10-31T06:39:17;10.65;;;4.03;;
2546;SDS011;1283;47.982;7.834;2022-10-31T06:41:45;19.17;;;4.88;;
2546;SDS011;1283;47.982;7.834;2022-10-31T06:44:13;9.07;;;3.40;;
2546;SDS011;1283;47.982;7.834;2022-10-31T06:46:39;13.55;;;3.33;;
2546;SDS011;1283;47.982;7.834;2022-10-31T06:49:06;9.65;;;3.05;;
2546;SDS011;1283;47.982;7.834;2022-10-31T06:51:32;10.57;;;2.97;;
2546;SDS011;1283;47.982;7.834;2022-10-31T06:53:59;10.90;;;3.03;;
2546;SDS011;1283;47.982;7.834;2022-10-31T06:56:25;7.43;;;2.83;;
2546;SDS011;1283;47.982;7.834;2022-10-31T06:58:53;11.80;;;3.28;;
2546;SDS011;1283;47.982;7.834;2022-10-31T07:01:19;9.50;;;2.47;;
2546;SDS011;1283;47.982;7.834;2022-10-31T07:03:46;11.27;;;3.42;;
2546;SDS011;1283;47.982;7.834;2022-10-31T07:06:12;8.88;;;2.83;;
2546;SDS011;1283;47.982;7.834;2022-10-31T07:08:39;13.18;;;4.10;;
2546;SDS011;1283;47.982;7.834;2022-10-31T07:11:05;13.40;;;3.20;;
2546;SDS011;1283;47.982;7.834;2022-10-31T07:13:32;14.13;;;3.47;;
2546;SDS011;1283;47.982;7.834;2022-10-31T07:16:00;14.70;;;3.15;;
2546;SDS011;1283;47.982;7.834;2022-10-31T07:18:28;10.73;;;3.03;;
2546;SDS011;1283;47.982;7.834;2022-10-31T07:20:55;8.70;;;3.10;;
2546;SDS011;1283;47.982;7.834;2022-10-31T07:23:21;9.13;;;2.67;;
2546;SDS011;1283;47.982;7.834;2022-10-31T07:25:48;9.43;;;2.90;;
2546;SDS011;1283;47.982;7.834;2022-10-31T07:28:15;10.07;;;3.22;;
2546;SDS011;1283;47.982;7.834;2022-10-31T07:30:41;6.05;;;2.90;;
2546;SDS011;1283;47.982;7.834;2022-10-31T07:33:09;7.47;;;2.72;;
2546;SDS011;1283;47.982;7.834;2022-10-31T07:35:35;12.35;;;2.88;;
2546;SDS011;1283;47.982;7.834;2022-10-31T07:38:08;6.68;;;2.55;;
2546;SDS011;1283;47.982;7.834;2022-10-31T07:40:35;11.63;;;3.00;;
2546;SDS011;1283;47.982;7.834;2022-10-31T07:43:01;7.70;;;3.53;;
2546;SDS011;1283;47.982;7.834;2022-10-31T07:45:28;17.92;;;3.63;;
2546;SDS011;1283;47.982;7.834;2022-10-31T07:47:55;14.27;;;3.72;;
2546;SDS011;1283;47.982;7.834;2022-10-31T07:50:23;9.93;;;3.30;;
2546;SDS011;1283;47.982;7.834;2022-10-31T07:52:57;10.18;;;3.47;;
2546;SDS011;1283;47.982;7.834;2022-10-31T07:55:24;8.85;;;3.40;;
2546;SDS011;1283;47.982;7.834;2022-10-31T07:57:55;14.63;;;3.83;;
2546;SDS011;1283;47.982;7.834;2022-10-31T08:00:22;13.77;;;3.40;;
2546;SDS011;1283;47.982;7.834;2022-10-31T08:02:56;11.10;;;3.20;;
2546;SDS011;1283;47.982;7.834;2022-10-31T08:05:25;13.90;;;3.90;;
2546;SDS011;1283;47.982;7.834;2022-10-31T08:07:51;11.02;;;3.95;;
2546;SDS011;1283;47.982;7.834;2022-10-31T08:10:18;9.38;;;3.75;;
2546;SDS011;1283;47.982;7.834;2022-10-31T08:12:44;9.93;;;4.32;;
2546;SDS011;1283;47.982;7.834;2022-10-31T08:15:11;9.98;;;4.47;;
2546;SDS011;1283;47.982;7.834;2022-10-31T08:17:37;10.63;;;4.13;;
2546;SDS011;1283;47.982;7.834;2022-10-31T08:20:05;15.50;;;3.85;;
2546;SDS011;1283;47.982;7.834;2022-10-31T08:22:33;11.63;;;3.85;;
2546;SDS011;1283;47.982;7.834;2022-10-31T08:24:59;13.38;;;4.13;;
2546;SDS011;1283;47.982;7.834;2022-10-31T08:27:26;11.25;;;3.20;;
2546;SDS011;1283;47.982;7.834;2022-10-31T08:29:52;11.43;;;4.18;;
2546;SDS011;1283;47.982;7.834;2022-10-31T08:32:19;10.38;;;3.75;;
2546;SDS011;1283;47.982;7.834;2022-10-31T08:34:45;10.93;;;3.83;;
2546;SDS011;1283;47.982;7.834;2022-10-31T08:37:11;13.25;;;3.88;;
2546;SDS011;1283;47.982;7.834;2022-10-31T08:39:45;19.13;;;4.05;;
2546;SDS011;1283;47.982;7.834;2022-10-31T08:42:11;6.82;;;3.35;;
2546;SDS011;1283;47.982;7.834;2022-10-31T08:44:38;9.48;;;3.45;;
2546;SDS011;1283;47.982;7.834;2022-10-31T08:47:04;14.25;;;3.80;;
2546;SDS011;1283;47.982;7.834;2022-10-31T08:49:31;16.90;;;3.80;;
2546;SDS011;1283;47.982;7.834;2022-10-31T08:51:57;15.88;;;3.72;;
2546;SDS011;1283;47.982;7.834;2022-10-31T08:54:23;17.13;;;3.60;;
2546;SDS011;1283;47.982;7.834;2022-10-31T08:56:54;10.07;;;3.67;;
2546;SDS011;1283;47.982;7.834;2022-10-31T08:59:21;22.10;;;3.65;;
2546;SDS011;1283;47.982;7.834;2022-10-31T09:01:47;11.13;;;3.60;;
2546;SDS011;1283;47.982;7.834;2022-10-31T09:04:14;12.50;;;3.72;;
2546;SDS011;1283;47.982;7.834;2022-10-31T09:06:41;8.10;;;3.30;;
2546;SDS011;1283;47.982;7.834;2022-10-31T09:09:07;13.25;;;3.70;;
2546;SDS011;1283;47.982;7.834;2022-10-31T09:11:34;17.08;;;3.75;;
2546;SDS011;1283;47.982;7.834;2022-10-31T09:14:01;13.10;;;3.03;;
2546;SDS011;1283;47.982;7.834;2022-10-31T09:16:28;8.57;;;3.88;;
2546;SDS011;1283;47.982;7.834;2022-10-31T09:18:54;14.00;;;3.60;;
2546;SDS011;1283;47.982;7.834;2022-10-31T09:21:21;13.25;;;3.95;;
2546;SDS011;1283;47.982;7.834;2022-10-31T09:23:47;13.98;;;3.60;;
2546;SDS011;1283;47.982;7.834;2022-10-31T09:26:14;12.85;;;4.10;;
2546;SDS011;1283;47.982;7.834;2022-10-31T09:28:40;15.07;;;4.40;;
2546;SDS011;1283;47.982;7.834;2022-10-31T09:31:08;9.27;;;3.10;;
2546;SDS011;1283;47.982;7.834;2022-10-31T09:33:35;18.42;;;4.25;;
2546;SDS011;1283;47.982;7.834;2022-10-31T09:36:02;9.38;;;3.38;;
2546;SDS011;1283;47.982;7.834;2022-10-31T09:38:29;7.95;;;3.08;;
2546;SDS011;1283;47.982;7.834;2022-10-31T09:40:55;6.60;;;2.60;;
2546;SDS011;1283;47.982;7.834;2022-10-31T09:43:32;9.17;;;3.17;;
2546;SDS011;1283;47.982;7.834;2022-10-31T09:46:04;9.63;;;4.25;;
2546;SDS011;1283;47.982;7.834;2022-10-31T09:48:51;17.20;;;4.10;;
2546;SDS011;1283;47.982;7.834;2022-10-31T09:51:25;14.40;;;4.25;;
2546;SDS011;1283;47.982;7.834;2022-10-31T09:53:57;18.63;;;4.07;;
2546;SDS011;1283;47.982;7.834;2022-10-31T09:56:26;11.80;;;4.97;;
2546;SDS011;1283;47.982;7.834;2022-10-31T09:58:57;17.92;;;4.68;;
2546;SDS011;1283;47.982;7.834;2022-10-31T10:01:30;11.90;;;4.68;;
2546;SDS011;1283;47.982;7.834;2022-10-31T10:04:01;19.08;;;5.68;;
2546;SDS011;1283;47.982;7.834;2022-10-31T10:06:32;14.52;;;4.97;;
2546;SDS011;1283;47.982;7.834;2022-10-31T10:09:00;17.27;;;5.55;;
2546;SDS011;1283;47.982;7.834;2022-10-31T10:11:31;9.70;;;4.57;;
2546;SDS011;1283;47.982;7.834;2022-10-31T10:14:16;14.68;;;5.70;;
2546;SDS011;1283;47.982;7.834;2022-10-31T10:16:54;14.60;;;5.40;;
2546;SDS011;1283;47.982;7.834;2022-10-31T10:19:29;13.40;;;4.43;;
2546;SDS011;1283;47.982;7.834;2022-10-31T10:22:02;16.83;;;4.33;;
2546;SDS011;1283;47.982;7.834;2022-10-31T10:24:44;13.27;;;4.53;;
2546;SDS011;1283;47.982;7.834;2022-10-31T10:27:20;20.77;;;4.93;;
2546;SDS011;1283;47.982;7.834;2022-10-31T10:29:50;14.00;;;4.68;;
2546;SDS011;1283;47.982;7.834;2022-10-31T10:32:23;12.02;;;4.43;;
2546;SDS011;1283;47.982;7.834;2022-10-31T10:34:51;14.90;;;5.43;;
2546;SDS011;1283;47.982;7.834;2022-10-31T10:37:22;15.98;;;5.05;;
2546;SDS011;1283;47.982;7.834;2022-10-31T10:39:53;13.68;;;4.35;;
2546;SDS011;1283;47.982;7.834;2022-10-31T10:42:21;12.27;;;5.00;;
2546;SDS011;1283;47.982;7.834;2022-10-31T10:45:13;12.35;;;5.20;;
2546;SDS011;1283;47.982;7.834;2022-10-31T10:48:01;13.50;;;5.15;;
2546;SDS011;1283;47.982;7.834;2022-10-31T10:50:34;18.20;;;6.55;;
2546;SDS011;1283;47.982;7.834;2022-10-31T10:53:05;12.98;;;5.28;;
2546;SDS011;1283;47.982;7.834;2022-10-31T10:55:47;15.45;;;5.38;;
2546;SDS011;1283;47.982;7.834;2022-10-31T10:58:18;17.65;;;5.50;;
2546;SDS011;1283;47.982;7.834;2022-10-31T11:00:45;17.95;;;5.88;;
2546;SDS011;1283;47.982;7.834;2022-10-31T11:03:14;13.38;;;5.85;;
2546;SDS011;1283;47.982;7.834;2022-10-31T11:05:42;17.38;;;5.57;;
2546;SDS011;1283;47.982;7.834;2022-10-31T11:08:22;14.77;;;5.88;;
2546;SDS011;1283;47.982;7.834;2022-10-31T11:10:55;16.67;;;6.97;;
2546;SDS011;1283;47.982;7.834;2022-10-31T11:13:23;15.75;;;5.70;;
2546;SDS011;1283;47.982;7.834;2022-10-31T11:15:51;13.95;;;5.82;;
2546;SDS011;1283;47.982;7.834;2022-10-31T11:18:22;13.63;;;5.88;;
2546;SDS011;1283;47.982;7.834;2022-10-31T11:20:51;22.95;;;6.60;;
2546;SDS011;1283;47.982;7.834;2022-10-31T11:23:19;14.30;;;5.93;;
2546;SDS011;1283;47.982;7.834;2022-10-31T11:25:53;13.85;;;5.88;;
2546;SDS011;1283;47.982;7.834;2022-10-31T11:28:21;18.52;;;6.28;;
2546;SDS011;1283;47.982;7.834;2022-10-31T11:30:49;13.85;;;6.68;;
2546;SDS011;1283;47.982;7.834;2022-10-31T11:33:22;14.80;;;4.97;;
2546;SDS011;1283;47.982;7.834;2022-10-31T11:35:52;16.02;;;5.57;;
2546;SDS011;1283;47.982;7.834;2022-10-31T11:38:21;17.70;;;5.05;;
2546;SDS011;1283;47.982;7.834;2022-10-31T11:40:53;16.38;;;4.80;;
2546;SDS011;1283;47.982;7.834;2022-10-31T11:43:20;14.40;;;4.93;;
2546;SDS011;1283;47.982;7.834;2022-10-31T11:45:47;15.30;;;4.70;;
2546;SDS011;1283;47.982;7.834;2022-10-31T11:48:15;9.02;;;4.78;;
2546;SDS011;1283;47.982;7.834;2022-10-31T11:50:50;14.20;;;5.03;;
2546;SDS011;1283;47.982;7.834;2022-10-31T11:53:18;13.25;;;4.78;;
2546;SDS011;1283;47.982;7.834;2022-10-31T11:55:46;14.57;;;5.60;;
2546;SDS011;1283;47.982;7.834;2022-10-31T11:58:20;14.27;;;5.40;;
2546;SDS011;1283;47.982;7.834;2022-10-31T12:00:48;13.80;;;5.25;;
2546;SDS011;1283;47.982;7.834;2022-10-31T12:03:20;19.30;;;5.75;;
2546;SDS011;1283;47.982;7.834;2022-10-31T12:05:55;20.63;;;4.60;;
2546;SDS011;1283;47.982;7.834;2022-10-31T12:08:26;9.23;;;4.63;;
2546;SDS011;1283;47.982;7.834;2022-10-31T12:10:57;14.80;;;4.50;;
2546;SDS011;1283;47.982;7.834;2022-10-31T12:13:32;13.27;;;4.68;;
2546;SDS011;1283;47.982;7.834;2022-10-31T12:16:01;13.23;;;3.80;;
2546;SDS011;1283;47.982;7.834;2022-10-31T12:18:41;11.60;;;3.60;;
2546;SDS011;1283;47.982;7.834;2022-10-31T12:21:27;10.13;;;4.32;;
2546;SDS011;1283;47.982;7.834;2022-10-31T12:24:15;17.13;;;5.13;;
2546;SDS011;1283;47.982;7.834;2022-10-31T12:26:50;13.18;;;4.35;;
2546;SDS011;1283;47.982;7.834;2022-10-31T12:29:27;15.43;;;4.45;;
2546;SDS011;1283;47.982;7.834;2022-10-31T12:32:03;12.48;;;4.50;;
2546;SDS011;1283;47.982;7.834;2022-10-31T12:34:43;13.50;;;4.50;;
2546;SDS011;1283;47.982;7.834;2022-10-31T12:37:18;15.48;;;4.22;;
2546;SDS011;1283;47.982;7.834;2022-10-31T12:39:52;13.55;;;3.80;;
2546;SDS011;1283;47.982;7.834;2022-10-31T12:42:30;18.30;;;4.10;;
2546;SDS011;1283;47.982;7.834;2022-10-31T12:45:09;11.25;;;4.03;;
2546;SDS011;1283;47.982;7.834;2022-10-31T12:50:39;12.82;;;4.00;;
2546;SDS011;1283;47.982;7.834;2022-10-31T12:53:18;15.40;;;4.13;;
2546;SDS011;1283;47.982;7.834;2022-10-31T12:55:54;15.02;;;4.13;;
2546;SDS011;1283;47.982;7.834;2022-10-31T12:58:26;29.00;;;5.65;;
2546;SDS011;1283;47.982;7.834;2022-10-31T13:00:58;20.50;;;5.20;;
2546;SDS011;1283;47.982;7.834;2022-10-31T13:03:32;18.75;;;4.43;;
2546;SDS011;1283;47.982;7.834;2022-10-31T13:06:03;16.00;;;4.57;;
2546;SDS011;1283;47.982;7.834;2022-10-31T13:08:35;15.02;;;5.13;;
2546;SDS011;1283;47.982;7.834;2022-10-31T13:11:06;24.77;;;5.60;;
2546;SDS011;1283;47.982;7.834;2022-10-31T13:13:36;12.30;;;4.97;;
2546;SDS011;1283;47.982;7.834;2022-10-31T13:16:07;11.77;;;4.68;;
2546;SDS011;1283;47.982;7.834;2022-10-31T13:18:38;12.88;;;4.80;;
2546;SDS011;1283;47.982;7.834;2022-10-31T13:21:08;12.30;;;4.47;;
2546;SDS011;1283;47.982;7.834;2022-10-31T13:23:37;20.90;;;5.40;;
2546;SDS011;1283;47.982;7.834;2022-10-31T13:26:06;11.48;;;5.05;;
2546;SDS011;1283;47.982;7.834;2022-10-31T13:28:37;15.38;;;5.32;;
2546;SDS011;1283;47.982;7.834;2022-10-31T13:31:07;14.73;;;4.68;;
2546;SDS011;1283;47.982;7.834;2022-10-31T13:33:34;20.88;;;5.00;;
2546;SDS011;1283;47.982;7.834;2022-10-31T13:36:08;17.33;;;5.38;;
2546;SDS011;1283;47.982;7.834;2022-10-31T13:38:42;17.08;;;4.93;;
2546;SDS011;1283;47.982;7.834;2022-10-31T13:41:18;12.40;;;5.03;;
2546;SDS011;1283;47.982;7.834;2022-10-31T13:43:56;12.05;;;4.65;;
2546;SDS011;1283;47.982;7.834;2022-10-31T13:46:26;19.25;;;5.43;;
2546;SDS011;1283;47.982;7.834;2022-10-31T13:49:01;18.50;;;4.43;;
2546;SDS011;1283;47.982;7.834;2022-10-31T13:51:28;17.30;;;5.00;;
2546;SDS011;1283;47.982;7.834;2022-10-31T13:53:58;15.93;;;4.82;;
2546;SDS011;1283;47.982;7.834;2022-10-31T13:56:26;15.60;;;4.10;;
2546;SDS011;1283;47.982;7.834;2022-10-31T13:58:58;11.30;;;3.97;;
2546;SDS011;1283;47.982;7.834;2022-10-31T14:01:26;15.65;;;5.07;;
2546;SDS011;1283;47.982;7.834;2022-10-31T14:03:57;11.82;;;4.07;;
2546;SDS011;1283;47.982;7.834;2022-10-31T14:06:41;17.85;;;4.72;;
2546;SDS011;1283;47.982;7.834;2022-10-31T14:09:22;18.63;;;4.72;;
2546;SDS011;1283;47.982;7.834;2022-10-31T14:11:58;13.73;;;4.78;;
2546;SDS011;1283;47.982;7.834;2022-10-31T14:14:29;10.95;;;4.20;;
2546;SDS011;1283;47.982;7.834;2022-10-31T14:16:58;15.68;;;4.88;;
2546;SDS011;1283;47.982;7.834;2022-10-31T14:19:25;14.45;;;5.80;;
2546;SDS011;1283;47.982;7.834;2022-10-31T14:21:52;16.63;;;6.93;;
2546;SDS011;1283;47.982;7.834;2022-10-31T14:24:34;68.35;;;7.72;;
2546;SDS011;1283;47.982;7.834;2022-10-31T14:27:02;19.08;;;5.80;;
2546;SDS011;1283;47.982;7.834;2022-10-31T14:29:32;22.65;;;5.38;;
2546;SDS011;1283;47.982;7.834;2022-10-31T14:32:01;17.58;;;5.18;;
2546;SDS011;1283;47.982;7.834;2022-10-31T14:34:36;15.35;;;5.75;;
2546;SDS011;1283;47.982;7.834;2022-10-31T14:40:02;13.07;;;4.75;;
2546;SDS011;1283;47.982;7.834;2022-10-31T14:42:39;12.23;;;5.07;;
2546;SDS011;1283;47.982;7.834;2022-10-31T14:45:28;14.43;;;4.75;;
2546;SDS011;1283;47.982;7.834;2022-10-31T14:48:03;17.30;;;4.53;;
2546;SDS011;1283;47.982;7.834;2022-10-31T14:50:41;18.67;;;5.57;;
2546;SDS011;1283;47.982;7.834;2022-10-31T14:53:12;21.33;;;6.43;;
2546;SDS011;1283;47.982;7.834;2022-10-31T14:55:44;18.08;;;5.65;;
2546;SDS011;1283;47.982;7.834;2022-10-31T14:58:13;21.67;;;6.32;;
2546;SDS011;1283;47.982;7.834;2022-10-31T15:00:42;10.15;;;5.75;;
2546;SDS011;1283;47.982;7.834;2022-10-31T15:03:11;16.17;;;6.28;;
2546;SDS011;1283;47.982;7.834;2022-10-31T15:05:41;16.90;;;5.65;;
2546;SDS011;1283;47.982;7.834;2022-10-31T15:08:13;15.52;;;6.32;;
2546;SDS011;1283;47.982;7.834;2022-10-31T15:10:58;24.20;;;7.00;;
2546;SDS011;1283;47.982;7.834;2022-10-31T15:13:29;25.70;;;6.55;;
2546;SDS011;1283;47.982;7.834;2022-10-31T15:15:55;21.52;;;6.43;;
2546;SDS011;1283;47.982;7.834;2022-10-31T15:18:23;20.02;;;6.72;;
2546;SDS011;1283;47.982;7.834;2022-10-31T15:20:51;12.07;;;6.07;;
2546;SDS011;1283;47.982;7.834;2022-10-31T15:23:20;19.83;;;6.78;;
2546;SDS011;1283;47.982;7.834;2022-10-31T15:25:48;19.90;;;6.05;;
2546;SDS011;1283;47.982;7.834;2022-10-31T15:28:21;15.57;;;6.80;;
2546;SDS011;1283;47.982;7.834;2022-10-31T15:30:51;14.15;;;6.65;;